createdAt,value
2022-08-18T00:00:40.724Z,21.46
2022-08-18T00:01:55.361Z,21.47
2022-08-18T00:03:14.223Z,21.42
2022-08-18T00:04:36.464Z,21.54
2022-08-18T00:05:46.653Z,21.47
2022-08-18T00:06:49.013Z,21.42
2022-08-18T00:07:51.398Z,21.46
2022-08-18T00:08:53.616Z,21.40
2022-08-18T00:09:56.357Z,21.34
2022-08-18T00:10:58.768Z,21.21
2022-08-18T00:12:04.475Z,21.24
2022-08-18T00:13:06.768Z,21.26
2022-08-18T00:14:21.442Z,21.35
2022-08-18T00:15:25.572Z,21.42
2022-08-18T00:16:27.973Z,21.41
2022-08-18T00:17:31.260Z,21.30
2022-08-18T00:18:33.725Z,21.17
2022-08-18T00:19:46.489Z,21.02
2022-08-18T00:20:50.440Z,20.96
2022-08-18T00:21:52.884Z,20.92
2022-08-18T00:22:56.584Z,20.83
2022-08-18T00:23:58.868Z,20.86
2022-08-18T00:25:01.677Z,20.90
2022-08-18T00:26:04.586Z,20.90
2022-08-18T00:27:06.941Z,20.71
2022-08-18T00:28:09.921Z,20.70
2022-08-18T00:29:12.398Z,20.70
2022-08-18T00:30:18.325Z,20.78
2022-08-18T00:31:20.567Z,20.84
2022-08-18T00:32:26.337Z,20.82
2022-08-18T00:33:28.626Z,20.86
2022-08-18T00:34:30.864Z,20.81
2022-08-18T00:35:38.196Z,20.69
2022-08-18T00:36:41.111Z,20.74
2022-08-18T00:37:43.697Z,20.50
2022-08-18T00:38:46.059Z,20.53
2022-08-18T00:39:52.042Z,20.64
2022-08-18T00:40:56.723Z,20.57
2022-08-18T00:41:58.978Z,20.58
2022-08-18T00:43:04.800Z,20.57
2022-08-18T00:44:07.245Z,20.60
2022-08-18T00:45:15.569Z,20.58
2022-08-18T00:46:24.678Z,20.52
2022-08-18T00:47:41.979Z,20.52
2022-08-18T00:48:48.715Z,20.47
2022-08-18T00:49:53.101Z,20.42
2022-08-18T00:51:02.755Z,20.38
2022-08-18T00:52:05.873Z,20.41
2022-08-18T00:53:27.595Z,20.58
2022-08-18T00:54:33.122Z,20.54
2022-08-18T00:55:36.521Z,20.44
2022-08-18T00:56:44.134Z,20.38
2022-08-18T00:57:50.284Z,20.32
2022-08-18T00:58:59.199Z,20.38
2022-08-18T01:00:13.310Z,20.44
2022-08-18T01:01:18.812Z,20.42
2022-08-18T01:02:33.469Z,20.34
2022-08-18T01:03:39.909Z,20.41
2022-08-18T01:04:47.426Z,20.50
2022-08-18T01:05:59.424Z,20.56
2022-08-18T01:07:07.010Z,20.54
2022-08-18T01:08:14.499Z,20.60
2022-08-18T01:09:17.963Z,20.63
2022-08-18T01:10:22.869Z,20.66
2022-08-18T01:11:25.268Z,20.64
2022-08-18T01:12:45.517Z,20.71
2022-08-18T01:13:49.216Z,20.75
2022-08-18T01:14:51.633Z,20.72
2022-08-18T01:15:53.926Z,20.71
2022-08-18T01:17:15.007Z,20.69
2022-08-18T01:18:35.671Z,20.57
2022-08-18T01:19:57.466Z,20.55
2022-08-18T01:21:35.756Z,20.62
2022-08-18T01:22:49.959Z,20.59
2022-08-18T01:23:54.555Z,20.59
2022-08-18T01:25:18.612Z,20.62
2022-08-18T01:26:22.724Z,20.67
2022-08-18T01:27:26.788Z,20.68
2022-08-18T01:28:49.380Z,20.71
2022-08-18T01:29:51.782Z,20.71
2022-08-18T01:30:58.103Z,20.67
2022-08-18T01:32:00.501Z,20.60
2022-08-18T01:33:02.770Z,20.64
2022-08-18T01:34:07.620Z,20.64
2022-08-18T01:35:11.549Z,20.65
2022-08-18T01:36:20.214Z,20.58
2022-08-18T01:37:24.271Z,20.42
2022-08-18T01:38:26.989Z,20.38
2022-08-18T01:41:23.717Z,20.39
2022-08-18T01:41:23.889Z,20.36
2022-08-18T01:42:17.331Z,20.44
2022-08-18T01:43:20.844Z,20.49
2022-08-18T01:44:23.083Z,20.47
2022-08-18T01:45:26.299Z,20.50
2022-08-18T01:46:33.599Z,20.51
2022-08-18T01:47:47.387Z,20.48
2022-08-18T01:48:52.100Z,20.42
2022-08-18T01:49:54.378Z,20.38
2022-08-18T01:50:57.033Z,20.31
2022-08-18T01:52:02.220Z,20.39
2022-08-18T01:53:07.605Z,20.40
2022-08-18T01:54:13.711Z,20.42
2022-08-18T01:55:16.130Z,20.42
2022-08-18T01:56:18.534Z,20.48
2022-08-18T01:57:21.671Z,20.35
2022-08-18T01:58:31.429Z,20.39
2022-08-18T01:59:35.246Z,20.43
2022-08-18T02:00:37.975Z,20.36
2022-08-18T02:01:48.450Z,20.32
2022-08-18T02:03:01.957Z,20.34
2022-08-18T02:04:33.332Z,20.08
2022-08-18T02:05:36.564Z,20.07
2022-08-18T02:06:40.545Z,20.04
2022-08-18T02:07:48.833Z,20.08
2022-08-18T02:08:56.561Z,20.02
2022-08-18T02:09:59.560Z,20.02
2022-08-18T02:11:03.330Z,19.89
2022-08-18T02:12:07.571Z,19.80
2022-08-18T02:13:10.267Z,19.87
2022-08-18T02:14:12.527Z,19.94
2022-08-18T02:15:14.800Z,20.01
2022-08-18T02:16:17.307Z,20.06
2022-08-18T02:17:19.888Z,20.10
2022-08-18T02:18:47.403Z,20.16
2022-08-18T02:19:49.761Z,20.20
2022-08-18T02:20:52.292Z,20.22
2022-08-18T02:21:54.607Z,20.21
2022-08-18T02:22:58.597Z,20.17
2022-08-18T02:24:01.148Z,20.23
2022-08-18T02:25:05.141Z,20.23
2022-08-18T02:26:12.140Z,20.17
2022-08-18T02:27:15.952Z,20.02
2022-08-18T02:28:18.213Z,20.04
2022-08-18T02:29:20.491Z,20.00
2022-08-18T02:30:23.277Z,20.02
2022-08-18T02:31:25.812Z,20.01
2022-08-18T02:32:29.488Z,20.02
2022-08-18T02:33:32.039Z,20.00
2022-08-18T02:34:35.024Z,20.05
2022-08-18T02:35:38.683Z,20.09
2022-08-18T02:36:40.936Z,20.14
2022-08-18T02:37:47.910Z,20.17
2022-08-18T02:38:56.604Z,20.01
2022-08-18T02:40:02.524Z,20.03
2022-08-18T02:41:06.717Z,20.01
2022-08-18T02:42:09.220Z,20.07
2022-08-18T02:43:11.519Z,20.09
2022-08-18T02:44:14.283Z,20.04
2022-08-18T02:45:16.586Z,20.06
2022-08-18T02:46:19.192Z,20.09
2022-08-18T02:47:22.275Z,20.09
2022-08-18T02:48:32.957Z,19.96
2022-08-18T02:49:36.822Z,19.73
2022-08-18T02:50:48.471Z,19.63
2022-08-18T02:51:52.279Z,19.67
2022-08-18T02:52:54.800Z,19.72
2022-08-18T02:54:00.620Z,19.75
2022-08-18T02:55:03.619Z,19.76
2022-08-18T02:56:40.784Z,19.74
2022-08-18T02:57:49.058Z,19.74
2022-08-18T02:58:54.818Z,19.77
2022-08-18T02:59:57.450Z,19.89
2022-08-18T03:01:02.133Z,19.90
2022-08-18T03:02:06.514Z,19.86
2022-08-18T03:03:09.008Z,19.84
2022-08-18T03:04:14.247Z,19.86
2022-08-18T03:05:17.458Z,19.75
2022-08-18T03:06:21.062Z,19.64
2022-08-18T03:07:24.104Z,19.50
2022-08-18T03:08:26.405Z,19.44
2022-08-18T03:09:29.663Z,19.36
2022-08-18T03:10:34.242Z,19.38
2022-08-18T03:11:37.512Z,19.43
2022-08-18T03:12:42.435Z,19.40
2022-08-18T03:13:46.340Z,19.35
2022-08-18T03:14:50.855Z,19.37
2022-08-18T03:15:56.700Z,19.33
2022-08-18T03:17:00.506Z,19.48
2022-08-18T03:18:02.900Z,19.50
2022-08-18T03:19:05.243Z,19.57
2022-08-18T03:20:07.737Z,19.57
2022-08-18T03:21:14.876Z,19.58
2022-08-18T03:22:27.685Z,19.61
2022-08-18T03:23:31.761Z,19.55
2022-08-18T03:24:34.527Z,19.53
2022-08-18T03:25:37.224Z,19.50
2022-08-18T03:26:42.416Z,19.56
2022-08-18T03:27:44.750Z,19.49
2022-08-18T03:28:49.265Z,19.50
2022-08-18T03:29:51.684Z,19.40
2022-08-18T03:30:54.091Z,19.41
2022-08-18T03:31:56.403Z,19.39
2022-08-18T03:32:58.717Z,19.43
2022-08-18T03:34:01.568Z,19.51
2022-08-18T03:35:04.495Z,19.49
2022-08-18T03:36:14.173Z,19.31
2022-08-18T03:37:16.494Z,19.33
2022-08-18T03:38:18.711Z,19.27
2022-08-18T03:39:23.594Z,19.16
2022-08-18T03:40:26.097Z,19.05
2022-08-18T03:41:44.409Z,19.02
2022-08-18T03:42:51.163Z,18.92
2022-08-18T03:43:53.417Z,18.91
2022-08-18T03:44:55.763Z,18.93
2022-08-18T03:46:09.648Z,18.96
2022-08-18T03:47:11.946Z,19.01
2022-08-18T03:48:14.402Z,19.03
2022-08-18T03:49:18.158Z,18.98
2022-08-18T03:50:21.538Z,18.95
2022-08-18T03:51:29.136Z,19.06
2022-08-18T03:52:31.435Z,19.10
2022-08-18T03:53:37.886Z,19.04
2022-08-18T03:54:40.825Z,18.97
2022-08-18T03:55:43.561Z,18.96
2022-08-18T03:56:47.156Z,18.97
2022-08-18T03:57:52.785Z,19.03
2022-08-18T03:58:58.755Z,19.06
2022-08-18T04:00:01.497Z,19.08
2022-08-18T04:01:07.973Z,19.23
2022-08-18T04:02:11.596Z,19.29
2022-08-18T04:03:13.905Z,19.32
2022-08-18T04:04:19.635Z,19.43
2022-08-18T04:05:22.200Z,19.52
2022-08-18T04:06:30.285Z,19.55
2022-08-18T04:07:32.881Z,19.60
2022-08-18T04:08:35.159Z,19.57
2022-08-18T04:09:38.848Z,19.63
2022-08-18T04:10:44.165Z,19.68
2022-08-18T04:11:46.926Z,19.67
2022-08-18T04:12:51.734Z,19.62
2022-08-18T04:13:57.788Z,19.67
2022-08-18T04:15:00.005Z,19.63
2022-08-18T04:16:02.296Z,19.66
2022-08-18T04:17:05.382Z,19.64
2022-08-18T04:18:08.926Z,19.68
2022-08-18T04:19:13.608Z,19.69
2022-08-18T04:20:16.415Z,19.60
2022-08-18T04:21:19.124Z,19.46
2022-08-18T04:22:22.598Z,19.36
2022-08-18T04:23:25.025Z,19.32
2022-08-18T04:24:31.871Z,19.39
2022-08-18T04:25:35.518Z,19.44
2022-08-18T04:26:45.247Z,19.34
2022-08-18T04:27:47.597Z,19.24
2022-08-18T04:28:49.971Z,19.25
2022-08-18T04:29:52.267Z,19.30
2022-08-18T04:30:59.520Z,19.32
2022-08-18T04:32:05.997Z,19.32
2022-08-18T04:33:08.437Z,19.38
2022-08-18T04:34:12.120Z,19.25
2022-08-18T04:35:14.559Z,19.12
2022-08-18T04:36:20.519Z,19.17
2022-08-18T04:37:23.203Z,19.16
2022-08-18T04:38:25.550Z,19.13
2022-08-18T04:39:28.460Z,19.21
2022-08-18T04:40:33.594Z,19.16
2022-08-18T04:41:38.069Z,19.22
2022-08-18T04:42:43.530Z,19.24
2022-08-18T04:43:48.031Z,19.09
2022-08-18T04:44:51.660Z,19.12
2022-08-18T04:45:54.056Z,19.24
2022-08-18T04:46:56.470Z,19.28
2022-08-18T04:47:58.739Z,19.25
2022-08-18T04:49:01.047Z,19.25
2022-08-18T04:50:03.980Z,19.11
2022-08-18T04:51:09.364Z,19.09
2022-08-18T04:52:40.525Z,19.13
2022-08-18T04:53:44.943Z,19.09
2022-08-18T04:54:47.225Z,19.12
2022-08-18T04:55:54.278Z,18.99
2022-08-18T04:56:56.580Z,18.88
2022-08-18T04:57:59.486Z,18.88
2022-08-18T04:59:03.236Z,19.02
2022-08-18T05:00:07.304Z,19.04
2022-08-18T05:01:10.038Z,19.11
2022-08-18T05:02:14.857Z,19.16
2022-08-18T05:03:17.544Z,19.24
2022-08-18T05:04:19.894Z,19.34
2022-08-18T05:05:23.516Z,19.32
2022-08-18T05:06:28.093Z,19.32
2022-08-18T05:07:30.513Z,19.12
2022-08-18T05:08:32.917Z,19.03
2022-08-18T05:09:41.302Z,19.01
2022-08-18T05:10:43.846Z,19.00
2022-08-18T05:11:46.163Z,19.17
2022-08-18T05:12:48.717Z,19.11
2022-08-18T05:13:54.573Z,19.09
2022-08-18T05:14:57.265Z,19.13
2022-08-18T05:16:16.855Z,19.11
2022-08-18T05:17:20.622Z,18.98
2022-08-18T05:18:24.588Z,18.93
2022-08-18T05:19:30.827Z,18.89
2022-08-18T05:20:34.886Z,18.90
2022-08-18T05:21:41.959Z,18.94
2022-08-18T05:22:45.500Z,19.02
2022-08-18T05:23:49.660Z,19.01
2022-08-18T05:24:52.558Z,19.13
2022-08-18T05:26:00.441Z,18.98
2022-08-18T05:27:03.666Z,19.05
2022-08-18T05:28:06.060Z,19.07
2022-08-18T05:29:18.478Z,19.13
2022-08-18T05:30:22.068Z,19.20
2022-08-18T05:31:26.682Z,19.26
2022-08-18T05:32:47.385Z,19.22
2022-08-18T05:33:52.137Z,19.03
2022-08-18T05:34:54.616Z,18.99
2022-08-18T05:36:05.411Z,19.02
2022-08-18T05:37:22.637Z,19.04
2022-08-18T05:38:53.539Z,18.99
2022-08-18T05:40:04.332Z,19.06
2022-08-18T05:41:24.433Z,19.14
2022-08-18T05:42:29.062Z,19.16
2022-08-18T05:43:31.888Z,19.13
2022-08-18T05:44:47.135Z,19.21
2022-08-18T05:45:51.711Z,19.12
2022-08-18T05:46:57.020Z,19.18
2022-08-18T05:48:00.014Z,19.22
2022-08-18T05:49:02.583Z,19.20
2022-08-18T05:50:19.356Z,19.23
2022-08-18T05:51:34.545Z,19.39
2022-08-18T05:52:56.516Z,19.41
2022-08-18T05:54:18.131Z,19.56
2022-08-18T05:55:47.796Z,19.38
2022-08-18T05:56:52.960Z,19.39
2022-08-18T05:58:01.870Z,19.26
2022-08-18T05:59:05.057Z,19.32
2022-08-18T06:00:10.791Z,19.39
2022-08-18T06:01:21.574Z,19.46
2022-08-18T06:02:38.585Z,19.54
2022-08-18T06:03:49.821Z,19.64
2022-08-18T06:04:57.040Z,19.72
2022-08-18T06:06:02.216Z,19.80
2022-08-18T06:07:09.514Z,19.75
2022-08-18T06:08:14.372Z,19.35
2022-08-18T06:09:43.521Z,19.58
2022-08-18T06:10:48.676Z,19.69
2022-08-18T06:11:51.334Z,19.54
2022-08-18T06:12:57.477Z,19.73
2022-08-18T06:14:00.372Z,19.89
2022-08-18T06:15:27.565Z,19.91
2022-08-18T06:16:54.047Z,20.02
2022-08-18T06:18:20.150Z,20.14
2022-08-18T06:19:36.901Z,19.85
2022-08-18T06:20:59.693Z,19.90
2022-08-18T06:22:14.775Z,19.80
2022-08-18T06:23:19.845Z,19.77
2022-08-18T06:24:36.132Z,19.97
2022-08-18T06:26:16.903Z,20.03
2022-08-18T06:27:31.315Z,19.60
2022-08-18T06:29:06.214Z,19.55
2022-08-18T06:30:27.374Z,19.71
2022-08-18T06:31:45.028Z,19.73
2022-08-18T06:33:12.549Z,19.69
2022-08-18T06:34:40.655Z,19.88
2022-08-18T06:35:50.177Z,19.97
2022-08-18T06:37:04.460Z,19.98
2022-08-18T06:38:32.700Z,20.06
2022-08-18T06:39:43.407Z,20.03
2022-08-18T06:40:48.116Z,20.11
2022-08-18T06:41:53.559Z,19.96
2022-08-18T06:42:55.857Z,20.07
2022-08-18T06:44:04.813Z,19.92
2022-08-18T06:45:12.812Z,19.87
2022-08-18T06:46:21.890Z,19.88
2022-08-18T06:47:44.537Z,19.95
2022-08-18T06:48:54.308Z,20.10
2022-08-18T06:50:20.559Z,20.16
2022-08-18T06:51:27.556Z,19.87
2022-08-18T06:52:33.858Z,19.78
2022-08-18T06:53:54.689Z,19.90
2022-08-18T06:54:59.737Z,20.08
2022-08-18T06:56:25.741Z,20.20
2022-08-18T06:57:52.847Z,20.42
2022-08-18T06:59:13.332Z,20.60
2022-08-18T07:00:18.139Z,20.64
2022-08-18T07:01:24.396Z,20.88
2022-08-18T07:02:55.430Z,21.00
2022-08-18T07:03:58.228Z,20.95
2022-08-18T07:05:22.100Z,21.20
2022-08-18T07:06:30.361Z,21.30
2022-08-18T07:07:41.167Z,21.33
2022-08-18T07:08:45.076Z,21.32
2022-08-18T07:09:49.337Z,21.42
2022-08-18T07:10:52.834Z,21.67
2022-08-18T07:12:02.515Z,21.36
2022-08-18T07:13:08.604Z,21.58
2022-08-18T07:14:21.089Z,21.77
2022-08-18T07:15:24.276Z,22.09
2022-08-18T07:16:54.508Z,22.16
2022-08-18T07:18:05.031Z,22.09
2022-08-18T07:19:13.083Z,21.83
2022-08-18T07:20:21.717Z,21.93
2022-08-18T07:21:30.054Z,22.21
2022-08-18T07:22:39.214Z,22.28
2022-08-18T07:23:42.119Z,22.04
2022-08-18T07:24:47.563Z,21.62
2022-08-18T07:25:58.155Z,21.87
2022-08-18T07:27:04.793Z,21.76
2022-08-18T07:28:07.216Z,21.48
2022-08-18T07:29:14.690Z,21.56
2022-08-18T07:30:20.081Z,21.61
2022-08-18T07:31:27.895Z,21.60
2022-08-18T07:32:39.543Z,21.75
2022-08-18T07:33:46.496Z,21.91
2022-08-18T07:34:55.010Z,21.94
2022-08-18T07:36:06.951Z,21.41
2022-08-18T07:37:30.047Z,21.36
2022-08-18T07:38:43.073Z,21.50
2022-08-18T07:40:23.745Z,21.67
2022-08-18T07:41:35.630Z,21.43
2022-08-18T07:43:01.291Z,21.11
2022-08-18T07:44:25.528Z,21.48
2022-08-18T07:45:47.426Z,21.60
2022-08-18T07:47:01.938Z,21.59
2022-08-18T07:48:37.206Z,21.65
2022-08-18T07:49:40.750Z,21.67
2022-08-18T07:51:00.170Z,21.81
2022-08-18T07:52:35.824Z,21.73
2022-08-18T07:53:55.649Z,21.41
2022-08-18T07:55:13.736Z,21.36
2022-08-18T07:56:33.077Z,21.33
2022-08-18T07:58:06.027Z,21.20
2022-08-18T07:59:26.646Z,21.00
2022-08-18T08:00:59.923Z,20.63
2022-08-18T08:02:13.565Z,20.62
2022-08-18T08:03:34.391Z,20.58
2022-08-18T08:05:02.056Z,20.47
2022-08-18T08:06:14.988Z,20.29
2022-08-18T08:07:25.108Z,20.35
2022-08-18T08:08:54.894Z,20.36
2022-08-18T08:09:59.946Z,20.35
2022-08-18T08:11:19.147Z,20.44
2022-08-18T08:12:41.292Z,20.48
2022-08-18T08:14:22.904Z,20.31
2022-08-18T08:15:45.524Z,20.33
2022-08-18T08:17:04.528Z,20.25
2022-08-18T08:18:37.927Z,20.16
2022-08-18T08:20:01.017Z,20.44
2022-08-18T08:21:11.012Z,20.61
2022-08-18T08:22:22.890Z,20.34
2022-08-18T08:23:36.974Z,20.33
2022-08-18T08:24:52.177Z,20.18
2022-08-18T08:26:16.050Z,20.39
2022-08-18T08:27:34.327Z,20.08
2022-08-18T08:28:56.002Z,20.06
2022-08-18T08:30:08.457Z,20.13
2022-08-18T08:31:36.595Z,20.17
2022-08-18T08:32:49.160Z,20.00
2022-08-18T08:34:39.299Z,20.13
2022-08-18T08:35:50.373Z,20.28
2022-08-18T08:37:00.994Z,20.25
2022-08-18T08:38:45.921Z,20.12
2022-08-18T08:40:24.279Z,20.17
2022-08-18T08:41:41.428Z,20.05
2022-08-18T08:43:02.643Z,20.28
2022-08-18T08:44:14.944Z,20.39
2022-08-18T08:45:36.912Z,20.68
2022-08-18T08:46:51.880Z,20.84
2022-08-18T08:48:08.397Z,21.10
2022-08-18T08:49:39.601Z,20.92
2022-08-18T08:50:49.824Z,21.18
2022-08-18T08:52:04.974Z,21.39
2022-08-18T08:53:19.673Z,21.65
2022-08-18T08:54:27.465Z,21.71
2022-08-18T08:55:32.698Z,21.33
2022-08-18T08:56:44.268Z,21.28
2022-08-18T08:57:56.037Z,21.41
2022-08-18T08:59:10.204Z,21.57
2022-08-18T09:00:15.010Z,21.53
2022-08-18T09:01:35.182Z,21.33
2022-08-18T09:02:50.411Z,21.15
2022-08-18T09:04:01.448Z,21.26
2022-08-18T09:05:14.575Z,21.23
2022-08-18T09:06:47.759Z,20.77
2022-08-18T09:08:13.498Z,20.76
2022-08-18T09:09:57.105Z,20.78
2022-08-18T09:11:18.971Z,21.06
2022-08-18T09:12:25.380Z,21.22
2022-08-18T09:13:54.126Z,21.22
2022-08-18T09:15:03.755Z,21.34
2022-08-18T09:16:45.065Z,21.44
2022-08-18T09:17:58.891Z,21.59
2022-08-18T09:19:40.994Z,22.12
2022-08-18T09:21:09.083Z,22.98
2022-08-18T09:22:29.823Z,23.87
2022-08-18T09:23:42.423Z,24.13
2022-08-18T09:24:51.355Z,23.94
2022-08-18T09:25:58.512Z,24.49
2022-08-18T09:27:03.694Z,24.83
2022-08-18T09:28:12.777Z,24.84
2022-08-18T09:29:23.299Z,25.03
2022-08-18T09:30:49.288Z,25.21
2022-08-18T09:32:18.303Z,25.14
2022-08-18T09:33:40.415Z,25.72
2022-08-18T09:34:48.559Z,25.97
2022-08-18T09:36:15.301Z,26.05
2022-08-18T09:37:27.822Z,25.71
2022-08-18T09:38:50.584Z,25.45
2022-08-18T09:40:13.102Z,25.32
2022-08-18T09:41:32.216Z,25.60
2022-08-18T09:42:56.980Z,25.78
2022-08-18T09:44:18.273Z,25.89
2022-08-18T09:45:34.309Z,26.21
2022-08-18T09:46:57.561Z,25.99
2022-08-18T09:48:01.345Z,26.00
2022-08-18T09:49:23.799Z,25.56
2022-08-18T09:50:28.778Z,25.19
2022-08-18T09:51:40.111Z,24.65
2022-08-18T09:52:43.463Z,24.96
2022-08-18T09:53:46.807Z,24.67
2022-08-18T09:55:05.978Z,24.75
2022-08-18T09:56:09.066Z,24.37
2022-08-18T09:57:19.661Z,24.42
2022-08-18T09:58:26.310Z,24.49
2022-08-18T09:59:34.901Z,24.58
2022-08-18T10:00:38.193Z,24.50
2022-08-18T10:01:42.031Z,24.45
2022-08-18T10:02:48.805Z,23.85
2022-08-18T10:04:29.201Z,24.05
2022-08-18T10:05:32.023Z,24.23
2022-08-18T10:06:37.611Z,24.08
2022-08-18T10:07:55.933Z,24.11
2022-08-18T10:09:36.290Z,23.69
2022-08-18T10:11:09.266Z,23.89
2022-08-18T10:12:15.881Z,23.95
2022-08-18T10:13:52.290Z,23.94
2022-08-18T10:15:33.265Z,24.11
2022-08-18T10:18:37.512Z,24.27
2022-08-18T10:19:55.069Z,24.42
2022-08-18T10:21:18.771Z,24.32
2022-08-18T10:22:46.687Z,24.44
2022-08-18T10:24:14.801Z,24.66
2022-08-18T10:25:47.497Z,24.56
2022-08-18T10:26:54.111Z,24.90
2022-08-18T10:27:57.825Z,24.68
2022-08-18T10:29:11.275Z,24.78
2022-08-18T10:30:30.531Z,24.44
2022-08-18T10:31:54.866Z,24.29
2022-08-18T10:32:58.387Z,24.04
2022-08-18T10:34:19.391Z,24.23
2022-08-18T10:35:33.620Z,24.60
2022-08-18T10:36:41.963Z,24.49
2022-08-18T10:37:49.165Z,24.58
2022-08-18T10:38:53.466Z,24.77
2022-08-18T10:40:09.983Z,25.01
2022-08-18T10:41:30.977Z,25.00
2022-08-18T10:42:38.066Z,25.33
2022-08-18T10:43:45.908Z,25.55
2022-08-18T10:45:12.162Z,25.76
2022-08-18T10:46:29.459Z,25.87
2022-08-18T10:47:35.012Z,25.71
2022-08-18T10:48:40.251Z,25.92
2022-08-18T10:49:49.269Z,25.52
2022-08-18T10:51:21.535Z,25.72
2022-08-18T10:54:26.381Z,24.41
2022-08-18T10:55:51.475Z,24.04
2022-08-18T10:57:04.142Z,24.88
2022-08-18T10:58:34.656Z,25.26
2022-08-18T11:00:01.095Z,25.47
2022-08-18T11:01:40.123Z,25.63
2022-08-18T11:04:42.460Z,25.83
2022-08-18T11:05:45.065Z,26.01
2022-08-18T11:06:50.392Z,25.90
2022-08-18T11:08:01.157Z,25.95
2022-08-18T11:09:04.027Z,25.54
2022-08-18T11:10:57.579Z,25.86
2022-08-18T11:12:03.760Z,25.88
2022-08-18T11:13:10.149Z,26.12
2022-08-18T11:14:40.708Z,26.01
2022-08-18T11:15:48.801Z,25.95
2022-08-18T11:17:22.310Z,26.23
2022-08-18T11:18:43.155Z,25.90
2022-08-18T11:19:46.821Z,25.85
2022-08-18T11:20:53.784Z,25.84
2022-08-18T11:21:56.267Z,25.75
2022-08-18T11:23:02.339Z,26.02
2022-08-18T11:24:11.140Z,26.09
2022-08-18T11:25:22.294Z,26.30
2022-08-18T11:26:29.486Z,26.11
2022-08-18T11:27:37.948Z,25.60
2022-08-18T11:28:44.923Z,26.16
2022-08-18T11:29:49.229Z,26.30
2022-08-18T11:30:54.260Z,26.35
2022-08-18T11:32:23.045Z,26.70
2022-08-18T11:33:25.655Z,26.34
2022-08-18T11:34:45.476Z,26.28
2022-08-18T11:35:59.235Z,26.13
2022-08-18T11:37:09.889Z,26.23
2022-08-18T11:39:47.586Z,26.39
2022-08-18T11:41:11.769Z,26.49
2022-08-18T11:42:21.868Z,26.35
2022-08-18T11:43:40.980Z,26.55
2022-08-18T11:45:17.561Z,26.48
2022-08-18T11:46:38.593Z,25.97
2022-08-18T11:48:21.052Z,25.82
2022-08-18T11:49:33.687Z,26.77
2022-08-18T11:50:54.504Z,25.80
2022-08-18T11:52:19.581Z,25.57
2022-08-18T11:53:34.579Z,26.23
2022-08-18T11:54:50.680Z,26.05
2022-08-18T11:56:31.570Z,27.52
2022-08-18T11:57:46.247Z,27.21
2022-08-18T11:59:21.350Z,27.87
2022-08-18T12:00:53.799Z,28.44
2022-08-18T12:01:56.419Z,28.59
2022-08-18T12:03:04.808Z,28.26
2022-08-18T12:04:16.564Z,28.67
2022-08-18T12:05:19.725Z,28.18
2022-08-18T12:06:27.922Z,28.32
2022-08-18T12:07:35.794Z,28.06
2022-08-18T12:09:11.281Z,27.93
2022-08-18T12:10:28.322Z,26.57
2022-08-18T12:11:32.596Z,25.80
2022-08-18T12:12:45.878Z,26.03
2022-08-18T12:13:58.860Z,26.88
2022-08-18T12:15:17.539Z,27.21
2022-08-18T12:16:46.529Z,27.66
2022-08-18T12:17:52.148Z,27.79
2022-08-18T12:18:55.529Z,27.73
2022-08-18T12:19:59.752Z,27.79
2022-08-18T12:22:31.000Z,28.17
2022-08-18T12:23:38.667Z,28.07
2022-08-18T12:24:48.514Z,27.91
2022-08-18T12:25:51.735Z,28.02
2022-08-18T12:26:54.897Z,28.10
2022-08-18T12:27:58.382Z,28.32
2022-08-18T12:29:01.145Z,28.09
2022-08-18T12:30:05.509Z,27.66
2022-08-18T12:32:49.665Z,28.06
2022-08-18T12:34:00.999Z,28.23
2022-08-18T12:35:09.771Z,28.35
2022-08-18T12:36:13.522Z,28.53
2022-08-18T12:38:45.651Z,28.53
2022-08-18T12:39:55.812Z,28.28
2022-08-18T12:41:00.134Z,27.99
2022-08-18T12:42:02.660Z,28.17
2022-08-18T12:43:06.342Z,28.40
2022-08-18T12:44:13.448Z,28.44
2022-08-18T12:45:15.967Z,28.40
2022-08-18T12:46:18.345Z,28.57
2022-08-18T12:47:23.970Z,28.42
2022-08-18T12:48:30.273Z,27.96
2022-08-18T12:49:32.595Z,28.09
2022-08-18T12:50:50.252Z,28.36
2022-08-18T12:51:57.783Z,28.33
2022-08-18T12:53:00.801Z,28.04
2022-08-18T12:54:03.309Z,27.84
2022-08-18T12:55:08.686Z,27.90
2022-08-18T12:56:29.992Z,26.74
2022-08-18T12:57:52.164Z,26.67
2022-08-18T12:58:55.327Z,26.99
2022-08-18T12:59:57.654Z,26.66
2022-08-18T13:01:00.442Z,27.20
2022-08-18T13:02:06.877Z,27.22
2022-08-18T13:03:11.581Z,27.20
2022-08-18T13:04:15.645Z,27.48
2022-08-18T13:05:26.415Z,27.84
2022-08-18T13:06:33.785Z,27.89
2022-08-18T13:07:37.035Z,28.31
2022-08-18T13:08:49.892Z,28.65
2022-08-18T13:09:54.391Z,29.03
2022-08-18T13:11:00.426Z,28.76
2022-08-18T13:12:18.405Z,28.36
2022-08-18T13:13:21.969Z,28.39
2022-08-18T13:14:28.522Z,28.36
2022-08-18T13:15:31.018Z,28.42
2022-08-18T13:16:54.117Z,28.26
2022-08-18T13:17:57.587Z,27.92
2022-08-18T13:19:00.089Z,28.27
2022-08-18T13:20:10.540Z,28.60
2022-08-18T13:21:18.472Z,28.66
2022-08-18T13:22:20.859Z,28.75
2022-08-18T13:23:25.164Z,28.77
2022-08-18T13:24:27.879Z,28.79
2022-08-18T13:25:38.345Z,28.84
2022-08-18T13:26:45.929Z,28.89
2022-08-18T13:27:52.185Z,28.84
2022-08-18T13:28:57.984Z,29.03
2022-08-18T13:30:00.814Z,28.61
2022-08-18T13:31:05.435Z,28.06
2022-08-18T13:32:09.375Z,28.48
2022-08-18T13:33:33.977Z,28.87
2022-08-18T13:34:34.454Z,29.28
2022-08-18T13:35:44.647Z,29.17
2022-08-18T13:36:48.229Z,28.96
2022-08-18T13:37:50.727Z,28.95
2022-08-18T13:38:54.598Z,29.13
2022-08-18T13:39:58.147Z,28.89
2022-08-18T13:41:04.908Z,29.10
2022-08-18T13:42:26.482Z,29.00
2022-08-18T13:43:44.683Z,28.49
2022-08-18T13:44:53.213Z,28.62
2022-08-18T13:45:56.561Z,28.45
2022-08-18T13:46:58.881Z,27.28
2022-08-18T13:48:01.270Z,27.69
2022-08-18T13:49:04.435Z,28.02
2022-08-18T13:50:10.061Z,28.39
2022-08-18T13:51:23.576Z,28.62
2022-08-18T13:52:34.442Z,29.01
2022-08-18T13:53:50.631Z,29.29
2022-08-18T13:55:00.408Z,29.39
2022-08-18T13:56:03.524Z,29.31
2022-08-18T13:57:06.958Z,29.38
2022-08-18T13:58:20.322Z,29.31
2022-08-18T13:59:23.688Z,29.22
2022-08-18T14:00:30.785Z,28.82
2022-08-18T14:01:45.401Z,28.11
2022-08-18T14:02:57.064Z,28.15
2022-08-18T14:03:59.478Z,27.93
2022-08-18T14:05:02.060Z,27.69
2022-08-18T14:06:08.132Z,27.70
2022-08-18T14:07:12.578Z,27.74
2022-08-18T14:08:21.156Z,27.84
2022-08-18T14:09:36.001Z,28.02
2022-08-18T14:10:40.269Z,27.39
2022-08-18T14:11:42.602Z,27.62
2022-08-18T14:12:56.696Z,27.91
2022-08-18T14:14:00.214Z,27.87
2022-08-18T14:15:07.337Z,28.10
2022-08-18T14:16:10.400Z,28.32
2022-08-18T14:17:13.084Z,28.22
2022-08-18T14:18:16.248Z,28.55
2022-08-18T14:19:37.303Z,28.19
2022-08-18T14:21:01.747Z,28.20
2022-08-18T14:22:23.030Z,28.14
2022-08-18T14:23:52.886Z,28.36
2022-08-18T14:25:30.465Z,28.31
2022-08-18T14:26:49.826Z,27.98
2022-08-18T14:27:56.135Z,27.79
2022-08-18T14:28:59.505Z,27.59
2022-08-18T14:30:04.876Z,27.15
2022-08-18T14:31:07.310Z,27.16
2022-08-18T14:32:13.228Z,27.37
2022-08-18T14:33:22.386Z,27.31
2022-08-18T14:34:37.170Z,27.46
2022-08-18T14:36:06.022Z,27.37
2022-08-18T14:37:01.810Z,27.55
2022-08-18T14:38:05.056Z,27.59
2022-08-18T14:39:08.331Z,27.81
2022-08-18T14:40:12.351Z,27.69
2022-08-18T14:41:15.161Z,27.71
2022-08-18T14:42:21.363Z,27.64
2022-08-18T14:44:00.453Z,27.52
2022-08-18T14:45:18.008Z,27.32
2022-08-18T14:46:34.742Z,27.59
2022-08-18T14:47:37.276Z,27.89
2022-08-18T14:48:42.486Z,28.20
2022-08-18T14:49:47.960Z,28.17
2022-08-18T14:50:55.362Z,28.16
2022-08-18T14:52:02.199Z,28.30
2022-08-18T14:53:05.665Z,28.53
2022-08-18T14:54:09.850Z,28.53
2022-08-18T14:55:20.089Z,28.73
2022-08-18T14:56:22.477Z,28.81
2022-08-18T14:57:27.078Z,28.59
2022-08-18T14:58:31.466Z,28.38
2022-08-18T14:59:37.859Z,28.04
2022-08-18T15:00:49.846Z,27.46
2022-08-18T15:01:56.054Z,28.00
2022-08-18T15:02:59.474Z,28.40
2022-08-18T15:04:18.998Z,28.40
2022-08-18T15:05:24.499Z,28.69
2022-08-18T15:06:27.470Z,28.77
2022-08-18T15:07:29.929Z,28.86
2022-08-18T15:08:37.686Z,28.82
2022-08-18T15:09:40.143Z,28.84
2022-08-18T15:10:44.732Z,28.71
2022-08-18T15:11:51.217Z,28.51
2022-08-18T15:13:00.498Z,28.51
2022-08-18T15:14:02.847Z,28.47
2022-08-18T15:15:12.309Z,28.66
2022-08-18T15:16:23.024Z,28.44
2022-08-18T15:17:38.231Z,28.20